sensor_id;sensor_type;location;lat;lon;timestamp;P1;durP1;ratioP1;P2;durP2;ratioP2
44842;SDS011;31884;52.538;13.820;2023-02-23T00:01:16;34.45;;;13.88;;
44842;SDS011;31884;52.538;13.820;2023-02-23T00:03:46;30.38;;;13.73;;
44842;SDS011;31884;52.538;13.820;2023-02-23T00:06:13;32.40;;;13.63;;
44842;SDS011;31884;52.538;13.820;2023-02-23T00:08:39;34.05;;;13.65;;
44842;SDS011;31884;52.538;13.820;2023-02-23T00:11:06;33.30;;;13.45;;
44842;SDS011;31884;52.538;13.820;2023-02-23T00:13:35;35.22;;;12.88;;
44842;SDS011;31884;52.538;13.820;2023-02-23T00:16:34;31.27;;;13.38;;
44842;SDS011;31884;52.538;13.820;2023-02-23T00:18:54;33.05;;;12.55;;
44842;SDS011;31884;52.538;13.820;2023-02-23T00:21:28;38.03;;;13.82;;
44842;SDS011;31884;52.538;13.820;2023-02-23T00:24:00;34.92;;;13.77;;
44842;SDS011;31884;52.538;13.820;2023-02-23T00:26:29;32.58;;;13.85;;
44842;SDS011;31884;52.538;13.820;2023-02-23T00:28:59;33.35;;;12.43;;
44842;SDS011;31884;52.538;13.820;2023-02-23T00:31:25;33.28;;;14.13;;
44842;SDS011;31884;52.538;13.820;2023-02-23T00:33:52;30.13;;;14.13;;
44842;SDS011;31884;52.538;13.820;2023-02-23T00:36:23;36.67;;;14.20;;
44842;SDS011;31884;52.538;13.820;2023-02-23T00:38:53;32.90;;;13.50;;
44842;SDS011;31884;52.538;13.820;2023-02-23T00:41:21;29.30;;;13.80;;
44842;SDS011;31884;52.538;13.820;2023-02-23T00:43:49;35.15;;;14.43;;
44842;SDS011;31884;52.538;13.820;2023-02-23T00:46:19;28.38;;;13.05;;
44842;SDS011;31884;52.538;13.820;2023-02-23T00:48:46;28.50;;;12.98;;
44842;SDS011;31884;52.538;13.820;2023-02-23T00:51:16;25.48;;;11.80;;
44842;SDS011;31884;52.538;13.820;2023-02-23T00:53:43;29.05;;;13.10;;
44842;SDS011;31884;52.538;13.820;2023-02-23T00:56:10;34.95;;;13.48;;
44842;SDS011;31884;52.538;13.820;2023-02-23T00:58:38;33.75;;;15.15;;
44842;SDS011;31884;52.538;13.820;2023-02-23T01:01:10;28.80;;;13.30;;
44842;SDS011;31884;52.538;13.820;2023-02-23T01:03:37;29.50;;;13.82;;
44842;SDS011;31884;52.538;13.820;2023-02-23T01:06:05;33.85;;;13.30;;
44842;SDS011;31884;52.538;13.820;2023-02-23T01:08:35;31.98;;;13.68;;
44842;SDS011;31884;52.538;13.820;2023-02-23T01:11:07;29.50;;;13.70;;
44842;SDS011;31884;52.538;13.820;2023-02-23T01:13:34;27.00;;;12.82;;
44842;SDS011;31884;52.538;13.820;2023-02-23T01:16:11;37.80;;;14.90;;
44842;SDS011;31884;52.538;13.820;2023-02-23T01:18:40;30.08;;;12.68;;
44842;SDS011;31884;52.538;13.820;2023-02-23T01:21:16;31.42;;;13.52;;
44842;SDS011;31884;52.538;13.820;2023-02-23T01:23:44;34.22;;;12.68;;
44842;SDS011;31884;52.538;13.820;2023-02-23T01:26:20;39.63;;;14.38;;
44842;SDS011;31884;52.538;13.820;2023-02-23T01:28:52;36.00;;;14.75;;
44842;SDS011;31884;52.538;13.820;2023-02-23T01:31:19;35.78;;;13.57;;
44842;SDS011;31884;52.538;13.820;2023-02-23T01:33:45;31.60;;;13.75;;
44842;SDS011;31884;52.538;13.820;2023-02-23T01:36:11;28.02;;;12.00;;
44842;SDS011;31884;52.538;13.820;2023-02-23T01:38:37;25.98;;;11.48;;
44842;SDS011;31884;52.538;13.820;2023-02-23T01:41:03;28.35;;;13.20;;
44842;SDS011;31884;52.538;13.820;2023-02-23T01:43:31;32.30;;;12.95;;
44842;SDS011;31884;52.538;13.820;2023-02-23T01:45:56;29.50;;;11.32;;
44842;SDS011;31884;52.538;13.820;2023-02-23T01:48:26;29.55;;;12.40;;
44842;SDS011;31884;52.538;13.820;2023-02-23T01:51:09;27.48;;;11.63;;
44842;SDS011;31884;52.538;13.820;2023-02-23T01:53:47;32.83;;;13.30;;
44842;SDS011;31884;52.538;13.820;2023-02-23T01:56:20;32.13;;;14.93;;
44842;SDS011;31884;52.538;13.820;2023-02-23T01:58:48;32.60;;;13.48;;
44842;SDS011;31884;52.538;13.820;2023-02-23T02:01:16;29.65;;;12.82;;
44842;SDS011;31884;52.538;13.820;2023-02-23T02:03:44;38.30;;;14.43;;
44842;SDS011;31884;52.538;13.820;2023-02-23T02:06:14;31.70;;;13.77;;
44842;SDS011;31884;52.538;13.820;2023-02-23T02:08:43;30.00;;;11.82;;
44842;SDS011;31884;52.538;13.820;2023-02-23T02:11:12;32.08;;;13.85;;
44842;SDS011;31884;52.538;13.820;2023-02-23T02:25:09;30.48;;;13.45;;
44842;SDS011;31884;52.538;13.820;2023-02-23T02:27:55;38.15;;;15.32;;
44842;SDS011;31884;52.538;13.820;2023-02-23T02:35:47;31.10;;;14.52;;
44842;SDS011;31884;52.538;13.820;2023-02-23T02:38:40;42.30;;;15.30;;
44842;SDS011;31884;52.538;13.820;2023-02-23T02:41:37;27.13;;;13.30;;
44842;SDS011;31884;52.538;13.820;2023-02-23T02:44:17;29.88;;;13.48;;
44842;SDS011;31884;52.538;13.820;2023-02-23T02:47:10;28.17;;;13.35;;
44842;SDS011;31884;52.538;13.820;2023-02-23T02:52:56;35.67;;;13.38;;
44842;SDS011;31884;52.538;13.820;2023-02-23T02:55:27;29.88;;;12.82;;
44842;SDS011;31884;52.538;13.820;2023-02-23T02:58:01;35.08;;;14.25;;
44842;SDS011;31884;52.538;13.820;2023-02-23T03:00:39;33.00;;;13.30;;
44842;SDS011;31884;52.538;13.820;2023-02-23T03:03:28;34.33;;;15.07;;
44842;SDS011;31884;52.538;13.820;2023-02-23T03:06:26;38.22;;;14.73;;
44842;SDS011;31884;52.538;13.820;2023-02-23T03:09:18;29.38;;;12.80;;
44842;SDS011;31884;52.538;13.820;2023-02-23T03:15:19;31.35;;;14.00;;
44842;SDS011;31884;52.538;13.820;2023-02-23T03:18:14;32.20;;;14.00;;
44842;SDS011;31884;52.538;13.820;2023-02-23T03:21:14;31.58;;;13.82;;
44842;SDS011;31884;52.538;13.820;2023-02-23T03:24:14;28.45;;;13.63;;
44842;SDS011;31884;52.538;13.820;2023-02-23T03:27:15;31.70;;;12.85;;
44842;SDS011;31884;52.538;13.820;2023-02-23T03:30:25;35.95;;;15.48;;
44842;SDS011;31884;52.538;13.820;2023-02-23T03:33:31;33.60;;;12.80;;
44842;SDS011;31884;52.538;13.820;2023-02-23T03:36:20;34.45;;;14.10;;
44842;SDS011;31884;52.538;13.820;2023-02-23T03:41:58;33.50;;;15.05;;
44842;SDS011;31884;52.538;13.820;2023-02-23T03:44:45;34.22;;;14.82;;
44842;SDS011;31884;52.538;13.820;2023-02-23T03:47:32;35.60;;;14.70;;
44842;SDS011;31884;52.538;13.820;2023-02-23T03:50:32;40.53;;;15.20;;
44842;SDS011;31884;52.538;13.820;2023-02-23T03:53:23;32.17;;;14.57;;
44842;SDS011;31884;52.538;13.820;2023-02-23T03:56:15;32.88;;;14.57;;
44842;SDS011;31884;52.538;13.820;2023-02-23T03:59:01;33.05;;;13.93;;
44842;SDS011;31884;52.538;13.820;2023-02-23T04:01:48;37.42;;;13.88;;
44842;SDS011;31884;52.538;13.820;2023-02-23T04:04:34;34.97;;;14.40;;
44842;SDS011;31884;52.538;13.820;2023-02-23T04:07:19;38.95;;;16.13;;
44842;SDS011;31884;52.538;13.820;2023-02-23T04:10:04;27.75;;;13.65;;
44842;SDS011;31884;52.538;13.820;2023-02-23T04:15:40;35.25;;;14.77;;
44842;SDS011;31884;52.538;13.820;2023-02-23T04:18:07;35.72;;;15.68;;
44842;SDS011;31884;52.538;13.820;2023-02-23T04:20:38;37.28;;;14.70;;
44842;SDS011;31884;52.538;13.820;2023-02-23T04:23:03;37.38;;;14.90;;
44842;SDS011;31884;52.538;13.820;2023-02-23T04:25:29;32.25;;;14.80;;
44842;SDS011;31884;52.538;13.820;2023-02-23T04:27:55;34.72;;;15.48;;
44842;SDS011;31884;52.538;13.820;2023-02-23T04:30:20;34.83;;;16.15;;
44842;SDS011;31884;52.538;13.820;2023-02-23T04:32:49;38.60;;;16.13;;
44842;SDS011;31884;52.538;13.820;2023-02-23T04:35:14;33.10;;;14.88;;
44842;SDS011;31884;52.538;13.820;2023-02-23T04:37:40;29.58;;;14.70;;
44842;SDS011;31884;52.538;13.820;2023-02-23T04:40:05;31.58;;;14.65;;
44842;SDS011;31884;52.538;13.820;2023-02-23T04:42:31;34.60;;;15.93;;
44842;SDS011;31884;52.538;13.820;2023-02-23T04:44:57;28.35;;;14.50;;
44842;SDS011;31884;52.538;13.820;2023-02-23T04:47:23;37.47;;;15.80;;
44842;SDS011;31884;52.538;13.820;2023-02-23T04:49:49;37.97;;;15.82;;
44842;SDS011;31884;52.538;13.820;2023-02-23T04:52:14;42.35;;;15.02;;
44842;SDS011;31884;52.538;13.820;2023-02-23T04:54:40;41.85;;;15.73;;
44842;SDS011;31884;52.538;13.820;2023-02-23T04:57:05;40.30;;;16.30;;
44842;SDS011;31884;52.538;13.820;2023-02-23T04:59:31;35.33;;;14.73;;
44842;SDS011;31884;52.538;13.820;2023-02-23T05:01:57;40.00;;;15.90;;
44842;SDS011;31884;52.538;13.820;2023-02-23T05:04:23;35.85;;;16.63;;
44842;SDS011;31884;52.538;13.820;2023-02-23T05:06:48;38.75;;;17.60;;
44842;SDS011;31884;52.538;13.820;2023-02-23T05:09:14;36.95;;;16.75;;
44842;SDS011;31884;52.538;13.820;2023-02-23T05:11:40;35.80;;;16.27;;
44842;SDS011;31884;52.538;13.820;2023-02-23T05:14:05;33.40;;;16.30;;
44842;SDS011;31884;52.538;13.820;2023-02-23T05:16:31;33.78;;;14.57;;
44842;SDS011;31884;52.538;13.820;2023-02-23T05:18:56;38.25;;;15.68;;
44842;SDS011;31884;52.538;13.820;2023-02-23T05:21:22;43.00;;;16.75;;
44842;SDS011;31884;52.538;13.820;2023-02-23T05:23:48;35.72;;;16.85;;
44842;SDS011;31884;52.538;13.820;2023-02-23T05:26:13;38.03;;;15.70;;
44842;SDS011;31884;52.538;13.820;2023-02-23T05:28:39;33.08;;;16.33;;
44842;SDS011;31884;52.538;13.820;2023-02-23T05:31:06;37.92;;;15.90;;
44842;SDS011;31884;52.538;13.820;2023-02-23T05:33:32;30.88;;;14.82;;
44842;SDS011;31884;52.538;13.820;2023-02-23T05:35:58;38.65;;;16.52;;
44842;SDS011;31884;52.538;13.820;2023-02-23T05:38:24;33.78;;;15.10;;
44842;SDS011;31884;52.538;13.820;2023-02-23T05:40:51;29.33;;;14.80;;
44842;SDS011;31884;52.538;13.820;2023-02-23T05:43:16;40.28;;;16.45;;
44842;SDS011;31884;52.538;13.820;2023-02-23T05:45:42;41.15;;;17.17;;
44842;SDS011;31884;52.538;13.820;2023-02-23T05:48:08;42.40;;;17.63;;
44842;SDS011;31884;52.538;13.820;2023-02-23T05:50:35;38.25;;;16.80;;
44842;SDS011;31884;52.538;13.820;2023-02-23T05:53:00;39.63;;;16.83;;
44842;SDS011;31884;52.538;13.820;2023-02-23T05:55:26;37.70;;;16.70;;
44842;SDS011;31884;52.538;13.820;2023-02-23T05:57:52;39.72;;;15.77;;
44842;SDS011;31884;52.538;13.820;2023-02-23T06:00:17;33.70;;;15.82;;
44842;SDS011;31884;52.538;13.820;2023-02-23T06:02:43;31.85;;;15.20;;
44842;SDS011;31884;52.538;13.820;2023-02-23T06:05:12;38.15;;;17.85;;
44842;SDS011;31884;52.538;13.820;2023-02-23T06:07:38;39.25;;;18.75;;
44842;SDS011;31884;52.538;13.820;2023-02-23T06:10:03;35.65;;;17.23;;
44842;SDS011;31884;52.538;13.820;2023-02-23T06:12:30;36.40;;;15.05;;
44842;SDS011;31884;52.538;13.820;2023-02-23T06:14:55;38.60;;;15.95;;
44842;SDS011;31884;52.538;13.820;2023-02-23T06:17:21;37.85;;;16.20;;
44842;SDS011;31884;52.538;13.820;2023-02-23T06:19:47;37.35;;;15.32;;
44842;SDS011;31884;52.538;13.820;2023-02-23T06:22:13;36.58;;;15.02;;
44842;SDS011;31884;52.538;13.820;2023-02-23T06:24:41;32.65;;;13.43;;
44842;SDS011;31884;52.538;13.820;2023-02-23T06:27:07;36.83;;;14.50;;
44842;SDS011;31884;52.538;13.820;2023-02-23T06:29:32;29.83;;;13.88;;
44842;SDS011;31884;52.538;13.820;2023-02-23T06:31:58;32.80;;;15.43;;
44842;SDS011;31884;52.538;13.820;2023-02-23T06:34:23;41.95;;;15.88;;
44842;SDS011;31884;52.538;13.820;2023-02-23T06:36:49;36.47;;;16.42;;
44842;SDS011;31884;52.538;13.820;2023-02-23T06:39:15;24.02;;;13.20;;
44842;SDS011;31884;52.538;13.820;2023-02-23T06:41:40;35.65;;;17.75;;
44842;SDS011;31884;52.538;13.820;2023-02-23T06:44:06;35.20;;;15.95;;
44842;SDS011;31884;52.538;13.820;2023-02-23T06:46:31;33.15;;;15.63;;
44842;SDS011;31884;52.538;13.820;2023-02-23T06:48:57;38.55;;;15.27;;
44842;SDS011;31884;52.538;13.820;2023-02-23T06:51:23;38.38;;;15.80;;
44842;SDS011;31884;52.538;13.820;2023-02-23T06:53:49;36.15;;;16.38;;
44842;SDS011;31884;52.538;13.820;2023-02-23T06:56:17;28.75;;;13.55;;
44842;SDS011;31884;52.538;13.820;2023-02-23T06:58:43;33.30;;;14.75;;
44842;SDS011;31884;52.538;13.820;2023-02-23T07:01:08;36.55;;;16.48;;
44842;SDS011;31884;52.538;13.820;2023-02-23T07:03:34;32.97;;;15.57;;
44842;SDS011;31884;52.538;13.820;2023-02-23T07:06:00;33.83;;;16.15;;
44842;SDS011;31884;52.538;13.820;2023-02-23T07:08:27;33.83;;;15.57;;
44842;SDS011;31884;52.538;13.820;2023-02-23T07:10:53;38.78;;;16.75;;
44842;SDS011;31884;52.538;13.820;2023-02-23T07:13:18;33.88;;;15.50;;
44842;SDS011;31884;52.538;13.820;2023-02-23T07:15:45;35.42;;;15.68;;
44842;SDS011;31884;52.538;13.820;2023-02-23T07:18:11;34.97;;;15.52;;
44842;SDS011;31884;52.538;13.820;2023-02-23T07:20:36;33.38;;;15.82;;
44842;SDS011;31884;52.538;13.820;2023-02-23T07:23:02;36.88;;;17.45;;
44842;SDS011;31884;52.538;13.820;2023-02-23T07:25:27;32.70;;;16.00;;
44842;SDS011;31884;52.538;13.820;2023-02-23T07:27:54;36.33;;;16.33;;
44842;SDS011;31884;52.538;13.820;2023-02-23T07:30:20;31.33;;;14.85;;
44842;SDS011;31884;52.538;13.820;2023-02-23T07:32:51;26.75;;;14.68;;
44842;SDS011;31884;52.538;13.820;2023-02-23T07:35:18;41.60;;;17.85;;
44842;SDS011;31884;52.538;13.820;2023-02-23T07:37:44;38.70;;;15.43;;
44842;SDS011;31884;52.538;13.820;2023-02-23T07:40:09;32.05;;;15.32;;
44842;SDS011;31884;52.538;13.820;2023-02-23T07:42:36;32.80;;;16.10;;
44842;SDS011;31884;52.538;13.820;2023-02-23T07:45:01;28.35;;;14.50;;
44842;SDS011;31884;52.538;13.820;2023-02-23T07:47:27;31.80;;;15.63;;
44842;SDS011;31884;52.538;13.820;2023-02-23T07:49:55;27.88;;;14.60;;
44842;SDS011;31884;52.538;13.820;2023-02-23T07:52:22;37.75;;;16.77;;
44842;SDS011;31884;52.538;13.820;2023-02-23T07:54:47;28.75;;;13.95;;
44842;SDS011;31884;52.538;13.820;2023-02-23T07:57:12;31.50;;;15.38;;
44842;SDS011;31884;52.538;13.820;2023-02-23T07:59:38;32.70;;;15.93;;
44842;SDS011;31884;52.538;13.820;2023-02-23T08:02:03;32.28;;;14.23;;
44842;SDS011;31884;52.538;13.820;2023-02-23T08:04:29;30.23;;;15.40;;
44842;SDS011;31884;52.538;13.820;2023-02-23T08:06:54;34.83;;;16.33;;
44842;SDS011;31884;52.538;13.820;2023-02-23T08:09:20;29.92;;;15.27;;
44842;SDS011;31884;52.538;13.820;2023-02-23T08:11:45;35.38;;;17.85;;
44842;SDS011;31884;52.538;13.820;2023-02-23T08:14:11;29.52;;;14.77;;
44842;SDS011;31884;52.538;13.820;2023-02-23T08:16:36;28.83;;;13.90;;
44842;SDS011;31884;52.538;13.820;2023-02-23T08:19:02;36.10;;;15.13;;
44842;SDS011;31884;52.538;13.820;2023-02-23T08:21:28;30.17;;;14.68;;
44842;SDS011;31884;52.538;13.820;2023-02-23T08:23:54;31.20;;;14.57;;
44842;SDS011;31884;52.538;13.820;2023-02-23T08:26:20;29.83;;;15.07;;
44842;SDS011;31884;52.538;13.820;2023-02-23T08:28:45;31.55;;;15.52;;
44842;SDS011;31884;52.538;13.820;2023-02-23T08:31:12;32.40;;;14.43;;
44842;SDS011;31884;52.538;13.820;2023-02-23T08:33:40;26.90;;;13.63;;
44842;SDS011;31884;52.538;13.820;2023-02-23T08:36:06;27.55;;;13.48;;
44842;SDS011;31884;52.538;13.820;2023-02-23T08:38:32;31.95;;;14.95;;
44842;SDS011;31884;52.538;13.820;2023-02-23T08:41:00;26.17;;;14.00;;
44842;SDS011;31884;52.538;13.820;2023-02-23T08:43:26;22.98;;;13.35;;
44842;SDS011;31884;52.538;13.820;2023-02-23T08:45:52;25.25;;;13.10;;
44842;SDS011;31884;52.538;13.820;2023-02-23T08:48:18;30.63;;;16.48;;
44842;SDS011;31884;52.538;13.820;2023-02-23T08:50:45;25.40;;;12.70;;
44842;SDS011;31884;52.538;13.820;2023-02-23T08:53:14;25.58;;;13.80;;
44842;SDS011;31884;52.538;13.820;2023-02-23T08:55:40;28.17;;;13.07;;
44842;SDS011;31884;52.538;13.820;2023-02-23T08:58:06;28.80;;;13.43;;
44842;SDS011;31884;52.538;13.820;2023-02-23T09:00:34;23.77;;;13.30;;
44842;SDS011;31884;52.538;13.820;2023-02-23T09:03:00;31.75;;;14.07;;
44842;SDS011;31884;52.538;13.820;2023-02-23T09:05:26;37.95;;;15.63;;
44842;SDS011;31884;52.538;13.820;2023-02-23T09:07:51;28.92;;;13.90;;
44842;SDS011;31884;52.538;13.820;2023-02-23T09:10:17;27.40;;;13.80;;
44842;SDS011;31884;52.538;13.820;2023-02-23T09:12:44;27.17;;;13.10;;
44842;SDS011;31884;52.538;13.820;2023-02-23T09:15:10;32.15;;;14.65;;
44842;SDS011;31884;52.538;13.820;2023-02-23T09:17:36;34.88;;;16.65;;
44842;SDS011;31884;52.538;13.820;2023-02-23T09:20:02;28.90;;;15.10;;
44842;SDS011;31884;52.538;13.820;2023-02-23T09:22:28;33.03;;;15.55;;
44842;SDS011;31884;52.538;13.820;2023-02-23T09:24:54;27.60;;;14.98;;
44842;SDS011;31884;52.538;13.820;2023-02-23T09:27:19;39.80;;;17.60;;
44842;SDS011;31884;52.538;13.820;2023-02-23T09:29:45;28.73;;;14.88;;
44842;SDS011;31884;52.538;13.820;2023-02-23T09:32:10;30.60;;;15.32;;
44842;SDS011;31884;52.538;13.820;2023-02-23T09:34:36;42.50;;;19.75;;
44842;SDS011;31884;52.538;13.820;2023-02-23T09:37:02;35.78;;;17.48;;
44842;SDS011;31884;52.538;13.820;2023-02-23T09:39:28;31.40;;;15.07;;
44842;SDS011;31884;52.538;13.820;2023-02-23T09:42:15;34.15;;;15.98;;
44842;SDS011;31884;52.538;13.820;2023-02-23T09:44:43;30.38;;;15.02;;
44842;SDS011;31884;52.538;13.820;2023-02-23T09:50:29;38.88;;;15.40;;
44842;SDS011;31884;52.538;13.820;2023-02-23T09:55:53;33.38;;;14.75;;
44842;SDS011;31884;52.538;13.820;2023-02-23T09:58:21;33.10;;;14.57;;
44842;SDS011;31884;52.538;13.820;2023-02-23T10:03:51;29.20;;;14.38;;
44842;SDS011;31884;52.538;13.820;2023-02-23T10:06:21;31.85;;;15.65;;
44842;SDS011;31884;52.538;13.820;2023-02-23T10:08:50;30.10;;;14.90;;
44842;SDS011;31884;52.538;13.820;2023-02-23T10:11:39;27.90;;;14.02;;
44842;SDS011;31884;52.538;13.820;2023-02-23T10:16:58;25.98;;;13.40;;
44842;SDS011;31884;52.538;13.820;2023-02-23T10:19:52;23.10;;;12.98;;
44842;SDS011;31884;52.538;13.820;2023-02-23T10:22:20;24.95;;;12.65;;
44842;SDS011;31884;52.538;13.820;2023-02-23T10:24:49;23.50;;;12.07;;
44842;SDS011;31884;52.538;13.820;2023-02-23T10:27:31;21.90;;;11.77;;
44842;SDS011;31884;52.538;13.820;2023-02-23T10:30:02;20.35;;;11.13;;
44842;SDS011;31884;52.538;13.820;2023-02-23T10:35:17;19.73;;;10.90;;
44842;SDS011;31884;52.538;13.820;2023-02-23T10:37:45;17.17;;;9.68;;
44842;SDS011;31884;52.538;13.820;2023-02-23T10:40:15;20.77;;;10.50;;
44842;SDS011;31884;52.538;13.820;2023-02-23T10:42:44;24.45;;;11.35;;
44842;SDS011;31884;52.538;13.820;2023-02-23T10:45:28;23.33;;;12.10;;
44842;SDS011;31884;52.538;13.820;2023-02-23T10:48:05;20.25;;;10.80;;
44842;SDS011;31884;52.538;13.820;2023-02-23T10:50:32;21.48;;;10.70;;
44842;SDS011;31884;52.538;13.820;2023-02-23T10:53:12;19.52;;;10.80;;
44842;SDS011;31884;52.538;13.820;2023-02-23T10:55:42;20.55;;;10.55;;
44842;SDS011;31884;52.538;13.820;2023-02-23T10:58:18;20.95;;;10.63;;
44842;SDS011;31884;52.538;13.820;2023-02-23T11:00:57;23.08;;;11.13;;
44842;SDS011;31884;52.538;13.820;2023-02-23T11:03:29;22.83;;;12.25;;
44842;SDS011;31884;52.538;13.820;2023-02-23T11:08:35;26.83;;;12.20;;
44842;SDS011;31884;52.538;13.820;2023-02-23T11:13:33;19.80;;;10.85;;
44842;SDS011;31884;52.538;13.820;2023-02-23T11:16:00;22.10;;;11.20;;
44842;SDS011;31884;52.538;13.820;2023-02-23T11:18:28;18.77;;;10.55;;
44842;SDS011;31884;52.538;13.820;2023-02-23T11:20:54;18.77;;;10.63;;
44842;SDS011;31884;52.538;13.820;2023-02-23T11:23:30;22.58;;;11.40;;
44842;SDS011;31884;52.538;13.820;2023-02-23T11:26:00;19.55;;;11.15;;
44842;SDS011;31884;52.538;13.820;2023-02-23T11:28:31;20.75;;;11.10;;
44842;SDS011;31884;52.538;13.820;2023-02-23T11:31:18;22.08;;;11.27;;
44842;SDS011;31884;52.538;13.820;2023-02-23T11:33:46;19.25;;;10.00;;
44842;SDS011;31884;52.538;13.820;2023-02-23T11:38:41;21.08;;;11.00;;
44842;SDS011;31884;52.538;13.820;2023-02-23T11:41:20;20.45;;;10.38;;
44842;SDS011;31884;52.538;13.820;2023-02-23T11:43:51;21.23;;;11.77;;
44842;SDS011;31884;52.538;13.820;2023-02-23T11:46:21;20.27;;;9.70;;
44842;SDS011;31884;52.538;13.820;2023-02-23T11:48:48;17.00;;;10.18;;
44842;SDS011;31884;52.538;13.820;2023-02-23T11:51:23;23.98;;;11.77;;
44842;SDS011;31884;52.538;13.820;2023-02-23T11:53:51;22.23;;;10.60;;
44842;SDS011;31884;52.538;13.820;2023-02-23T11:56:20;18.20;;;10.70;;
44842;SDS011;31884;52.538;13.820;2023-02-23T11:58:52;17.70;;;10.20;;
44842;SDS011;31884;52.538;13.820;2023-02-23T12:01:22;17.38;;;9.70;;
44842;SDS011;31884;52.538;13.820;2023-02-23T12:04:08;21.60;;;11.68;;
44842;SDS011;31884;52.538;13.820;2023-02-23T12:06:47;21.20;;;11.32;;
44842;SDS011;31884;52.538;13.820;2023-02-23T12:09:21;21.83;;;11.23;;
44842;SDS011;31884;52.538;13.820;2023-02-23T12:11:54;17.33;;;11.13;;
44842;SDS011;31884;52.538;13.820;2023-02-23T12:16:54;19.93;;;10.23;;
44842;SDS011;31884;52.538;13.820;2023-02-23T12:19:28;19.90;;;11.68;;
44842;SDS011;31884;52.538;13.820;2023-02-23T12:24:44;20.10;;;11.30;;
44842;SDS011;31884;52.538;13.820;2023-02-23T12:27:25;20.63;;;10.65;;
44842;SDS011;31884;52.538;13.820;2023-02-23T12:38:30;19.45;;;10.23;;
44842;SDS011;31884;52.538;13.820;2023-02-23T12:40:51;22.90;;;11.93;;
44842;SDS011;31884;52.538;13.820;2023-02-23T12:43:28;22.42;;;12.13;;
44842;SDS011;31884;52.538;13.820;2023-02-23T12:46:04;14.85;;;9.25;;
44842;SDS011;31884;52.538;13.820;2023-02-23T12:54:10;17.42;;;10.50;;
44842;SDS011;31884;52.538;13.820;2023-02-23T13:04:55;20.98;;;11.02;;
44842;SDS011;31884;52.538;13.820;2023-02-23T13:07:58;18.60;;;10.60;;
44842;SDS011;31884;52.538;13.820;2023-02-23T13:19:09;20.17;;;11.90;;
44842;SDS011;31884;52.538;13.820;2023-02-23T13:21:43;24.90;;;12.73;;
44842;SDS011;31884;52.538;13.820;2023-02-23T13:24:16;20.67;;;12.18;;
44842;SDS011;31884;52.538;13.820;2023-02-23T13:29:40;21.33;;;12.10;;
44842;SDS011;31884;52.538;13.820;2023-02-23T13:32:11;26.90;;;12.05;;
44842;SDS011;31884;52.538;13.820;2023-02-23T13:34:41;24.15;;;13.32;;
44842;SDS011;31884;52.538;13.820;2023-02-23T13:37:14;21.15;;;12.68;;
44842;SDS011;31884;52.538;13.820;2023-02-23T13:39:52;23.10;;;12.43;;
44842;SDS011;31884;52.538;13.820;2023-02-23T13:42:31;22.73;;;12.73;;
44842;SDS011;31884;52.538;13.820;2023-02-23T13:48:23;22.23;;;12.77;;
44842;SDS011;31884;52.538;13.820;2023-02-23T13:56:09;18.52;;;12.07;;
44842;SDS011;31884;52.538;13.820;2023-02-23T13:58:44;22.45;;;12.05;;
44842;SDS011;31884;52.538;13.820;2023-02-23T14:01:17;20.60;;;12.27;;
44842;SDS011;31884;52.538;13.820;2023-02-23T14:03:51;16.95;;;10.70;;
44842;SDS011;31884;52.538;13.820;2023-02-23T14:06:20;18.23;;;10.57;;
44842;SDS011;31884;52.538;13.820;2023-02-23T14:08:50;25.35;;;13.68;;
44842;SDS011;31884;52.538;13.820;2023-02-23T14:11:28;20.00;;;11.88;;
44842;SDS011;31884;52.538;13.820;2023-02-23T14:13:59;20.52;;;11.40;;
44842;SDS011;31884;52.538;13.820;2023-02-23T14:16:26;22.27;;;11.68;;
44842;SDS011;31884;52.538;13.820;2023-02-23T14:21:46;25.33;;;12.07;;
44842;SDS011;31884;52.538;13.820;2023-02-23T14:24:20;24.38;;;12.32;;
44842;SDS011;31884;52.538;13.820;2023-02-23T14:29:30;30.08;;;15.07;;
44842;SDS011;31884;52.538;13.820;2023-02-23T14:37:15;26.23;;;13.98;;
44842;SDS011;31884;52.538;13.820;2023-02-23T14:42:08;24.33;;;13.10;;
44842;SDS011;31884;52.538;13.820;2023-02-23T14:44:47;22.05;;;14.13;;
44842;SDS011;31884;52.538;13.820;2023-02-23T14:47:16;19.80;;;12.07;;
44842;SDS011;31884;52.538;13.820;2023-02-23T14:49:46;19.75;;;12.05;;
44842;SDS011;31884;52.538;13.820;2023-02-23T14:52:20;30.67;;;13.70;;
44842;SDS011;31884;52.538;13.820;2023-02-23T14:57:51;20.40;;;11.27;;
44842;SDS011;31884;52.538;13.820;2023-02-23T15:00:20;21.63;;;11.88;;
44842;SDS011;31884;52.538;13.820;2023-02-23T15:02:54;21.95;;;12.40;;
44842;SDS011;31884;52.538;13.820;2023-02-23T15:05:25;22.50;;;12.75;;
44842;SDS011;31884;52.538;13.820;2023-02-23T15:07:58;22.17;;;12.70;;
44842;SDS011;31884;52.538;13.820;2023-02-23T15:15:50;21.58;;;12.48;;
44842;SDS011;31884;52.538;13.820;2023-02-23T15:21:38;17.52;;;10.93;;
44842;SDS011;31884;52.538;13.820;2023-02-23T15:24:11;23.13;;;12.98;;
44842;SDS011;31884;52.538;13.820;2023-02-23T15:31:38;20.95;;;12.32;;
44842;SDS011;31884;52.538;13.820;2023-02-23T15:34:16;27.38;;;14.10;;
44842;SDS011;31884;52.538;13.820;2023-02-23T15:36:45;26.70;;;15.93;;
44842;SDS011;31884;52.538;13.820;2023-02-23T15:39:19;28.27;;;16.13;;
44842;SDS011;31884;52.538;13.820;2023-02-23T15:41:58;26.73;;;14.20;;
44842;SDS011;31884;52.538;13.820;2023-02-23T15:44:24;25.75;;;14.80;;
44842;SDS011;31884;52.538;13.820;2023-02-23T15:46:58;25.20;;;14.38;;
44842;SDS011;31884;52.538;13.820;2023-02-23T15:49:30;26.45;;;14.93;;
44842;SDS011;31884;52.538;13.820;2023-02-23T15:51:58;24.92;;;15.27;;
44842;SDS011;31884;52.538;13.820;2023-02-23T15:54:32;28.20;;;15.45;;
44842;SDS011;31884;52.538;13.820;2023-02-23T15:57:05;28.40;;;16.23;;
44842;SDS011;31884;52.538;13.820;2023-02-23T15:59:38;35.75;;;17.92;;
44842;SDS011;31884;52.538;13.820;2023-02-23T16:02:14;33.15;;;18.02;;
44842;SDS011;31884;52.538;13.820;2023-02-23T16:04:43;30.02;;;16.98;;
44842;SDS011;31884;52.538;13.820;2023-02-23T16:07:15;31.23;;;18.50;;
44842;SDS011;31884;52.538;13.820;2023-02-23T16:10:03;34.88;;;18.67;;
44842;SDS011;31884;52.538;13.820;2023-02-23T16:12:49;33.17;;;18.98;;
44842;SDS011;31884;52.538;13.820;2023-02-23T16:17:51;37.72;;;21.13;;
44842;SDS011;31884;52.538;13.820;2023-02-23T16:20:37;40.40;;;22.27;;
44842;SDS011;31884;52.538;13.820;2023-02-23T16:23:28;34.58;;;20.83;;
44842;SDS011;31884;52.538;13.820;2023-02-23T16:25:57;37.33;;;21.30;;
44842;SDS011;31884;52.538;13.820;2023-02-23T16:28:30;42.50;;;22.27;;
44842;SDS011;31884;52.538;13.820;2023-02-23T16:31:05;40.63;;;21.63;;
44842;SDS011;31884;52.538;13.820;2023-02-23T16:38:54;32.47;;;19.00;;
44842;SDS011;31884;52.538;13.820;2023-02-23T16:41:31;34.17;;;18.70;;
44842;SDS011;31884;52.538;13.820;2023-02-23T16:43:59;37.38;;;20.40;;
44842;SDS011;31884;52.538;13.820;2023-02-23T16:46:27;31.27;;;17.85;;
44842;SDS011;31884;52.538;13.820;2023-02-23T16:48:55;31.23;;;19.27;;